Station CPNW1 - 9449427 - Cherry Point North Dock Met Image indicating link to RSS feed of recent meteorological observations for station CPNW1


Conditions at CPNW1 as of
(9:00 pm PDT on 04/18/2024)
0400 GMT on 04/19/2024:
     

Click on the graph icon in the table below to see a time series plot of the last five days of that observation.

5-day plot - Wind Direction Wind Direction (WDIR): N ( 360 deg true )
5-day plot - Wind Speed Wind Speed (WSPD): 8.9 kts
5-day plot - Wind Gust Wind Gust (GST): 13.0 kts
5-day plot - Air Temperature Air Temperature (ATMP): 55.2 °F
5-day plot - Wind Speed at 10 Meters Wind Speed at 10 meters (WSPD10M): 9.7 kts
5-day plot - Wind Speed at 20 Meters Wind Speed at 20 meters (WSPD20M): 9.7 kts
5-day plot -  Wind Speed, Wind Gust and Atmospheric Pressure Combined plot of Wind Speed, Gust, and Air Pressure
NOS Water Level Observation Network Water Level
Previous observations
TIME
(PDT)
5-day plot - Wind Direction
WDIR
 
5-day plot - Wind Speed
WSPD
kts
5-day plot - Wind Gust
GST
kts
5-day plot - Wave Height
WVHT
ft
5-day plot - Dominant Wave Period
DPD
sec
5-day plot - Average Wave Period
APD
sec
5-day plot - Mean Wave Direction
MWD
 
5-day plot - Atmospheric Pressure
PRES
in
5-day plot - Pressure Tendency
PTDY
in
5-day plot - Air Temperature
ATMP
°F
5-day plot - Water Temperature
WTMP
°F
5-day plot - Dew Point
DEWP
°F
5-day plot - Salinity
SAL
psu
5-day plot - Visibility
VIS
nmi
5-day plot - Tide (above MLLW)
TIDE
ft
2024-04-18 08:54 pm N 11.1 14.0------ 55.4-----
2024-04-18 08:48 pm N 12.0 14.0------ 55.4-----
2024-04-18 08:42 pm N 11.1 14.0------ 55.0-----
2024-04-18 08:36 pm N 12.0 14.0------ 55.0-----
2024-04-18 08:30 pm N 13.0 15.0------ 55.2-----
2024-04-18 08:24 pm N 13.0 15.0------ 55.4-----
2024-04-18 08:18 pm N 14.0 15.0------ 55.4-----
2024-04-18 08:12 pm N 12.0 15.0------ 55.2-----
2024-04-18 08:06 pm N 12.0 15.9------ 55.4-----
2024-04-18 08:00 pm N 13.0 17.1------ 55.6-----
2024-04-18 07:54 pm N 13.0 18.1------ 55.6-----
2024-04-18 07:48 pm N 15.9 18.1------ 55.9-----
2024-04-18 07:42 pmNNW 15.0 19.0------ 55.9-----
2024-04-18 07:36 pmNNW 14.0 18.1------ 55.9-----
2024-04-18 07:30 pmNNW 14.0 19.0------ 56.1-----
2024-04-18 07:24 pmNNW 15.0 19.0------ 56.5-----
2024-04-18 07:18 pmNNW 17.1 20.0------ 56.7-----
2024-04-18 07:12 pmNNW 17.1 19.0------ 56.3-----
2024-04-18 07:06 pmNNW 17.1 20.0------ 56.3-----
2024-04-18 07:00 pmNNW 18.1 21.0------ 55.6-----
2024-04-18 06:54 pmNNW 19.0 21.0------ 56.1-----
2024-04-18 06:48 pmNNW 18.1 21.0------ 56.5-----
2024-04-18 06:42 pmNNW 18.1 22.0------ 56.8-----
2024-04-18 06:36 pmNNW 20.0 22.9------ 56.3-----
2024-04-18 06:30 pmNNW 19.0 22.0------ 56.1-----
2024-04-18 06:24 pm NW 18.1 21.0------ 55.6-----
2024-04-18 06:18 pmNNW 17.1 19.0------ 54.7-----
2024-04-18 06:12 pm NW 15.9 19.0------ 54.5-----
2024-04-18 06:06 pm NW 14.0 15.9------ 54.0-----
2024-04-18 06:00 pm NW 15.0 15.9------ 53.8-----
2024-04-18 05:54 pm NW 11.1 14.0------ 53.2-----
2024-04-18 05:48 pm NW 13.0 15.9------ 53.4-----
2024-04-18 05:42 pm NW 15.0 15.9------ 53.8-----
2024-04-18 05:36 pm NW 12.0 13.0------ 53.1-----
2024-04-18 05:30 pm NW 8.9 12.0------ 53.1-----
2024-04-18 05:24 pm NW 12.0 13.0------ 52.9-----
2024-04-18 05:18 pm NW 8.9 9.9------ 52.5-----
2024-04-18 05:12 pm NW 8.9 11.1------ 52.9-----
2024-04-18 05:06 pm NW 8.9 11.1------ 52.0-----
2024-04-18 05:00 pm NW 9.9 13.0------ 52.0-----
2024-04-18 04:54 pmWNW 12.0 13.0------ 52.3-----
2024-04-18 04:48 pmWNW 8.9 11.1------ 52.2-----
2024-04-18 04:42 pm NW 8.9 9.9------ 52.3-----
2024-04-18 04:36 pm NW 8.9 11.1------ 51.6-----
2024-04-18 04:30 pm NW 9.9 11.1------ 51.8-----
2024-04-18 04:24 pm NW 8.9 11.1------ 52.0-----
2024-04-18 04:18 pm NW 8.9 9.9------ 51.8-----
2024-04-18 04:12 pm NW 8.9 11.1------ 51.6-----
2024-04-18 04:06 pm NW 11.1 13.0------ 51.4-----
2024-04-18 04:00 pm NW 12.0 15.0------ 52.0-----
2024-04-18 03:54 pm NW 13.0 14.0------ 52.2-----
2024-04-18 03:48 pm NW 12.0 14.0------ 52.3-----
2024-04-18 03:42 pmWNW 9.9 14.0------ 52.3-----
2024-04-18 03:36 pmWNW 12.0 13.0------ 52.5-----
2024-04-18 03:30 pm NW 9.9 14.0------ 52.0-----
2024-04-18 03:24 pmWNW 13.0 15.0------ 52.0-----
2024-04-18 03:12 pmWNW 14.0 15.9------ 51.8-----
2024-04-18 03:06 pmWNW 15.0 17.1------ 51.6-----
2024-04-18 03:00 pmWNW 17.1 19.0------------
2024-04-18 02:54 pm NW 17.1 19.0------------
2024-04-18 02:48 pm NW 15.9 18.1------ 51.8-----
2024-04-18 02:42 pm NW 15.9 18.1------ 51.4-----
2024-04-18 02:36 pmWNW 15.0 18.1------ 51.4-----
2024-04-18 02:24 pm NW 14.0 17.1------ 51.3-----
2024-04-18 02:18 pmWNW 15.9 19.0------ 51.1-----
2024-04-18 02:12 pm NW 15.0 17.1------ 50.9-----
2024-04-18 02:06 pmWNW 15.0 17.1------ 50.7-----
2024-04-18 02:00 pmWNW 15.0 15.9------ 50.5-----
2024-04-18 01:54 pmWNW 14.0 18.1------ 50.4-----
2024-04-18 01:48 pmWNW 14.0 18.1------ 50.4-----
2024-04-18 01:42 pmWNW 17.1 19.0------ 50.4-----
2024-04-18 01:36 pmWNW 17.1 18.1------ 50.4-----
2024-04-18 01:30 pm NW 12.0 14.0------ 50.4-----
2024-04-18 01:24 pm NW 12.0 15.0------ 50.4-----
2024-04-18 01:18 pm NW 15.0 18.1------ 50.2-----
2024-04-18 01:12 pm NW 13.0 15.0------ 50.0-----
2024-04-18 01:06 pmWNW 15.0 17.1------ 49.8-----
2024-04-18 01:00 pmWNW 15.0 17.1------ 49.8-----
2024-04-18 12:54 pmWNW 15.0 17.1------ 49.8-----
2024-04-18 12:48 pmWNW 15.0 17.1------ 49.5-----
2024-04-18 12:42 pmWNW 15.0 15.9------ 49.5-----
2024-04-18 12:36 pm NW 13.0 15.0------ 49.6-----
2024-04-18 12:30 pmWNW 13.0 15.0------ 49.6-----
2024-04-18 12:24 pmWNW 13.0 15.0------ 49.5-----
2024-04-18 12:18 pmWNW 13.0 14.0------ 49.5-----
2024-04-18 12:06 pm NW 14.0 15.9------ 49.6-----
2024-04-18 12:00 pm NW 14.0 15.0------ 49.5-----
2024-04-18 11:54 am NW 9.9 14.0------ 49.1-----
2024-04-18 11:48 am NW 13.0 14.0------ 48.9-----
2024-04-18 11:42 amWNW 11.1 13.0------ 49.1-----
2024-04-18 11:36 amWNW 13.0 14.0------ 49.1-----
2024-04-18 11:30 amWNW 12.0 14.0------ 48.7-----
2024-04-18 11:24 amWNW 13.0 13.0------ 48.6-----
2024-04-18 11:18 amWNW 11.1 12.0------ 48.4-----
2024-04-18 11:12 amWNW 9.9 12.0------ 48.0-----
2024-04-18 11:06 amWNW 9.9 12.0------ 47.8-----
2024-04-18 11:00 amWNW 11.1 12.0------ 47.5-----
2024-04-18 10:54 amWNW 8.9 11.1------ 47.5-----
2024-04-18 10:48 amWNW 8.9 9.9------ 47.3-----
2024-04-18 10:42 am NW 8.9 9.9------ 47.1-----
2024-04-18 10:36 am NW 8.9 9.9------ 46.9-----
2024-04-18 10:30 am NW 8.0 9.9------ 47.1-----
2024-04-18 10:24 amWNW 9.9 9.9------ 47.1-----
2024-04-18 10:18 am NW 9.9 11.1------ 47.1-----
2024-04-18 10:12 amWNW 9.9 9.9------ 47.1-----
2024-04-18 10:06 amWNW 9.9 11.1------ 47.1-----
2024-04-18 10:00 amWNW 9.9 9.9------ 47.1-----
2024-04-18 09:54 amWNW 8.9 9.9------ 47.3-----
2024-04-18 09:48 amWNW 8.9 9.9------ 47.5-----
2024-04-18 09:42 amWNW 8.9 8.9------ 47.5-----
2024-04-18 09:36 am NW 8.0 8.0------ 47.7-----
2024-04-18 09:30 am NW 7.0 8.0------ 47.8-----
2024-04-18 09:24 am NW 6.0 8.0------ 47.8-----
2024-04-18 09:18 amNNW 7.0 8.9------ 48.6-----
2024-04-18 09:12 amNNW 7.0 8.9------ 48.4-----
2024-04-18 09:06 amNNW 8.0 8.9------ 48.4-----
2024-04-18 09:00 amNNW 7.0 8.9------ 48.4-----
2024-04-18 08:54 amNNW 6.0 7.0------ 48.6-----
2024-04-18 08:48 am N 6.0 8.9------ 48.7-----
2024-04-18 08:42 am N 4.1 6.0------ 49.5-----
2024-04-18 08:36 am N 2.9 5.1------ 49.5-----
2024-04-18 08:30 am N 2.9 7.0------ 48.7-----
2024-04-18 08:24 am N 5.1 6.0------ 48.9-----
2024-04-18 08:18 am N 5.1 7.0------ 48.4-----
2024-04-18 08:12 amNNE 7.0 8.9------ 47.5-----
2024-04-18 08:06 amNNE 7.0 8.0------ 47.3-----
2024-04-18 08:00 amNNE 8.0 9.9------ 47.3-----
2024-04-18 07:54 am N 8.9 11.1------ 47.3-----
2024-04-18 07:48 am N 9.9 12.0------------
2024-04-18 07:42 amNNE 11.1 13.0------------
2024-04-18 07:36 amNNE 9.9 13.0------------
2024-04-18 07:30 amNNE 9.9 14.0------ 46.9-----
2024-04-18 07:24 am N 11.1 13.0------ 45.9-----
2024-04-18 07:18 am N 8.9 12.0------ 45.1-----
2024-04-18 07:12 am N 8.0 9.9------ 44.6-----
2024-04-18 07:06 am N 8.9 12.0------ 44.2-----
2024-04-18 07:00 am N 8.0 11.1------ 43.9-----
2024-04-18 06:54 am N 8.0 9.9------ 43.7-----
2024-04-18 06:48 am N 8.0 8.9------ 43.3-----
2024-04-18 06:42 am N 7.0 8.9------ 43.2-----
2024-04-18 06:36 am N 5.1 7.0------ 43.0-----
2024-04-18 06:30 amNNE 6.0 8.0------ 42.4-----
2024-04-18 06:24 amNNE 5.1 7.0------ 42.3-----
2024-04-18 06:18 amNNE 2.9 5.1------ 42.3-----
2024-04-18 06:12 am N 2.9 5.1------ 42.4-----
2024-04-18 06:06 amNNW 2.9 5.1------ 42.4-----
2024-04-18 06:00 am NW 4.1 5.1------ 42.4-----
2024-04-18 05:54 amNNW 4.1 5.1------ 42.6-----
2024-04-18 05:48 am N 1.9 4.1------ 42.3-----
2024-04-18 05:42 amNNW 1.9 4.1------ 42.6-----
2024-04-18 05:36 am N 2.9 5.1------ 43.0-----
2024-04-18 05:30 amNNE 5.1 8.0------ 43.3-----
2024-04-18 05:24 am NE 6.0 9.9------ 43.3-----
2024-04-18 05:18 amNNE 7.0 8.9------ 43.3-----
2024-04-18 05:12 amNNE 7.0 9.9------ 43.5-----
2024-04-18 05:06 am NE 8.0 9.9------ 44.1-----
2024-04-18 05:00 am N 5.1 9.9------ 43.5-----
2024-04-18 04:54 amNNW 5.1 7.0------ 43.3-----
2024-04-18 04:48 amNNW 5.1 7.0------ 43.5-----
2024-04-18 04:42 am NW 6.0 8.0------ 43.7-----
2024-04-18 04:36 amNNE 7.0 9.9------ 45.1-----
2024-04-18 04:30 am NE 8.9 12.0------ 45.1-----
2024-04-18 04:24 amENE 8.9 14.0------ 45.0-----
2024-04-18 04:18 am NE 8.9 13.0------ 45.1-----
2024-04-18 04:12 am NE 8.0 12.0------ 45.0-----
2024-04-18 04:06 am NE 8.0 12.0------ 45.0-----
2024-04-18 04:00 amENE 6.0 9.9------ 45.0-----
2024-04-18 03:54 amENE 5.1 8.0------ 44.8-----
2024-04-18 03:48 am NE 5.1 8.9------ 44.6-----
2024-04-18 03:42 am NE 6.0 9.9------ 44.6-----
2024-04-18 03:36 am NE 5.1 7.0------ 45.1-----
2024-04-18 03:30 am NE 7.0 9.9------ 45.5-----
2024-04-18 03:24 am NE 7.0 9.9------ 45.7-----
2024-04-18 03:18 am NE 7.0 9.9------ 45.3-----
2024-04-18 03:12 am NE 7.0 9.9------ 45.5-----
2024-04-18 03:06 am NE 6.0 8.9------ 45.3-----
2024-04-18 03:00 amENE 2.9 5.1------ 45.3-----
2024-04-18 02:54 amENE 4.1 6.0------ 45.5-----
2024-04-18 02:48 am E 1.9 7.0------ 45.7-----
2024-04-18 02:42 am E 2.9 4.1------ 45.9-----
2024-04-18 02:36 am- 0.0 5.1------ 45.5-----
2024-04-18 02:30 amENE 1.9 5.1------ 45.7-----
2024-04-18 02:24 amENE 4.1 7.0------ 45.9-----
2024-04-18 02:18 amENE 4.1 6.0------ 46.0-----
2024-04-18 02:12 amENE 5.1 7.0------ 46.2-----
2024-04-18 02:06 amENE 5.1 6.0------ 45.9-----
2024-04-18 02:00 am NE 4.1 5.1------ 46.2-----
2024-04-18 01:54 am NE 2.9 5.1------ 45.9-----
2024-04-18 01:48 am E 1.9 4.1------ 45.5-----
2024-04-18 01:42 amESE 1.0 2.9------ 44.8-----
2024-04-18 01:36 amENE 1.9 5.1------ 45.1-----
2024-04-18 01:30 am N 4.1 6.0------ 45.5-----
2024-04-18 01:24 amNNE 6.0 7.0------ 45.9-----
2024-04-18 01:18 am- 0.0 0.0------ 44.4-----
2024-04-18 01:12 am- 0.0 1.0------ 45.0-----
2024-04-18 01:06 am- 0.0 1.0------ 44.6-----
2024-04-18 01:00 am- 0.0 1.0------ 45.9-----
2024-04-18 12:54 amSSW 1.0 2.9------ 46.2-----
2024-04-18 12:48 am- 0.0 1.0------ 46.2-----
2024-04-18 12:42 am- 0.0 1.0------ 46.2-----
2024-04-18 12:36 am- 0.0 2.9------ 45.0-----
2024-04-18 12:30 amNNE 1.0 4.1------ 47.1-----
2024-04-18 12:24 am NE 1.9 2.9------ 45.1-----
2024-04-18 12:18 am E 1.0 1.9------ 46.8-----
2024-04-18 12:12 am E 1.0 1.9------ 46.4-----
2024-04-18 12:06 am E 1.0 2.9------ 46.2-----
2024-04-18 12:00 amENE 1.9 2.9------ 46.0-----
2024-04-17 11:54 pm NE 1.9 4.1------ 46.9-----
2024-04-17 11:48 pmESE 1.0 1.9------ 47.3-----
2024-04-17 11:42 pmENE 1.0 1.9------ 47.7-----
2024-04-17 11:36 pmESE 1.9 2.9------ 48.2-----
2024-04-17 11:30 pmESE 2.9 2.9------ 48.0-----
2024-04-17 11:24 pm E 2.9 2.9------ 47.8-----
2024-04-17 11:18 pm E 2.9 2.9------ 47.5-----
2024-04-17 11:12 pmSSE 2.9 5.1------ 48.7-----
2024-04-17 11:06 pmSSE 4.1 6.0------ 48.9-----
2024-04-17 11:00 pmSSE 1.9 5.1------ 48.9-----
2024-04-17 10:54 pm S 4.1 5.1------ 49.5-----
2024-04-17 10:48 pmSSE 1.9 4.1------ 49.6-----
2024-04-17 10:42 pm SE 4.1 6.0------ 49.5-----
2024-04-17 10:36 pm SE 5.1 6.0------ 49.3-----
2024-04-17 10:30 pm E 4.1 5.1------ 49.6-----
2024-04-17 10:24 pm E 1.0 2.9------ 48.9-----
2024-04-17 10:18 pm NE 1.9 5.1------ 48.7-----
2024-04-17 10:12 pmNNE 4.1 5.1------ 49.8-----
2024-04-17 10:06 pmNNE 5.1 5.1------ 49.8-----
2024-04-17 10:00 pmNNE 5.1 7.0------ 50.2-----
2024-04-17 09:54 pmNNE 6.0 8.0------ 50.7-----
2024-04-17 09:48 pm N 6.0 7.0------ 51.3-----
2024-04-17 09:42 pmNNE 1.9 4.1------ 49.8-----
2024-04-17 09:36 pm- 0.0 4.1------ 49.8-----
2024-04-17 09:30 pm N 4.1 6.0------ 50.4-----
2024-04-17 09:24 pm N 4.1 5.1------ 50.7-----
2024-04-17 09:18 pm N 5.1 5.1------ 50.9-----
2024-04-17 09:12 pm N 4.1 5.1------ 50.7-----
2024-04-17 09:06 pm N 2.9 4.1------ 50.9-----
2024-04-17 09:00 pm N 2.9 4.1------ 51.1-----
2024-04-17 08:54 pm N 2.9 2.9------ 51.1-----